Flight Track Log - Related Links

Times and Time Zones

All times are in EST time to prevent confusion due to time zone crossing. See the AFL150 flight status page for this flight to view local times or setup timezone preferences in your user account.

Time Position Orientation Groundspeed Altitude Reporting Facility
EST Latitude Longitude Course Direction KTS MPH feet Rate Location/Type
Fri 04:38:00 AM 56.1987 37.1081 307° West  Level Estimated
Fri 04:39:00 AM 56.2666 36.9431 307° West  Level Estimated
Fri 04:40:00 AM 56.3342 36.7776 306° West  Level Estimated
Fri 04:41:00 AM 56.4016 36.6114 306° West  Level Estimated
Fri 04:42:00 AM 56.4688 36.4446 306° West  Level Estimated
Fri 04:43:00 AM 56.5358 36.2773 306° West  Level Estimated
Fri 04:44:00 AM 56.6025 36.1094 306° West  Level Estimated
Fri 04:45:00 AM 56.6690 35.9409 306° West  Level Estimated
Fri 04:46:00 AM 56.7353 35.7717 306° West  Level Estimated
Fri 04:47:00 AM 56.8013 35.6020 305° West  Level Estimated
Fri 04:48:00 AM 56.8671 35.4317 305° West  Level Estimated
Fri 04:49:00 AM 56.9327 35.2608 305° West  Level Estimated
Fri 04:50:00 AM 56.9981 35.0893 305° West  Level Estimated
Fri 04:51:00 AM 57.0632 34.9172 305° West  Level Estimated
Fri 04:52:00 AM 57.1280 34.7445 305° West  Level Estimated
Fri 04:53:00 AM 57.1927 34.5712 305° West  Level Estimated
Fri 04:54:00 AM 57.2562 34.3995 304° West  Level Estimated
Fri 04:55:00 AM 57.3196 34.2273 304° West  Level Estimated
Fri 04:56:00 AM 57.3826 34.0544 304° West  Level Estimated
Fri 04:57:00 AM 57.4455 33.8810 304° West  Level Estimated
Fri 04:58:00 AM 57.5081 33.7070 304° West  Level Estimated
Fri 04:59:00 AM 57.5705 33.5323 304° West  Level Estimated
Fri 05:00:00 AM 57.6326 33.3571 304° West  Level Estimated
Fri 05:01:00 AM 57.6945 33.1813 303° West  Level Estimated
Fri 05:02:00 AM 57.7561 33.0049 303° West  Level Estimated
Fri 05:03:00 AM 57.8175 32.8278 303° West  Level Estimated
Fri 05:04:00 AM 57.8787 32.6502 303° West  Level Estimated
Fri 05:05:00 AM 57.9396 32.4720 303° West  Level Estimated
Fri 05:06:00 AM 58.0002 32.2931 303° West  Level Estimated
Fri 05:07:00 AM 58.0606 32.1137 303° West  Level Estimated
Fri 05:08:00 AM 58.1208 31.9336 302° West  Level Estimated
Fri 05:09:00 AM 58.1807 31.7530 302° West  Level Estimated
Fri 05:10:00 AM 58.2403 31.5717 302° West  Level Estimated
Fri 05:11:00 AM 58.2997 31.3899 302° West  Level Estimated
Fri 05:12:00 AM 58.3588 31.2074 302° West  Level Estimated
Fri 05:13:00 AM 58.4176 31.0243 302° West  Level Estimated
Fri 05:14:00 AM 58.4762 30.8406 301° West  Level Estimated
Fri 05:15:00 AM 58.5346 30.6563 301° West  Level Estimated
Fri 05:16:00 AM 58.5926 30.4713 301° West  Level Estimated
Fri 05:17:00 AM 58.6504 30.2858 301° West  Level Estimated
Fri 05:18:00 AM 58.7080 30.0996 301° West  Level Estimated
Fri 05:19:00 AM 58.7652 29.9129 301° West  Level Estimated
Fri 05:20:00 AM 58.8222 29.7255 300° West  Level Estimated
Fri 05:21:00 AM 58.8789 29.5375 300° West  Level Estimated
Fri 05:22:00 AM 58.9354 29.3489 300° West  Level Estimated
Fri 05:23:00 AM 58.9916 29.1596 300° West  Level Estimated
Fri 05:24:00 AM 59.0475 28.9698 300° West  Level Estimated
Fri 05:25:00 AM 59.1031 28.7793 300° West  Level Estimated
Fri 05:26:00 AM 59.1584 28.5882 300° West  Level Estimated
Fri 05:27:00 AM 59.2134 28.3965 299° West  Level Estimated
Fri 05:28:00 AM 59.2682 28.2042 299° West  Level Estimated
Fri 05:29:00 AM 59.3227 28.0112 299° West  Level Estimated
Fri 05:30:00 AM 59.3769 27.8177 299° West  Level Estimated
Fri 05:31:00 AM 59.4308 27.6235 299° West  Level Estimated
Fri 05:32:00 AM 59.4844 27.4287 299° West  Level Estimated
Fri 05:33:00 AM 59.5378 27.2333 298° West  Level Estimated
Fri 05:34:00 AM 59.5908 27.0373 298° West  Level Estimated
Fri 05:35:00 AM 59.6436 26.8406 298° West  Level Estimated
Fri 05:36:00 AM 59.6960 26.6433 298° West  Level Estimated
Fri 05:37:00 AM 59.7481 26.4455 298° West  Level Estimated
Fri 05:38:00 AM 59.8000 26.2470 298° West  Level Estimated
Fri 05:39:00 AM 59.8516 26.0478 297° West  Level Estimated
Fri 05:40:00 AM 59.9028 25.8481 297° West  Level Estimated
Fri 05:41:00 AM 59.9538 25.6478 297° West  Level Estimated
Fri 05:42:00 AM 60.0044 25.4468 297° West  Level Estimated
Fri 05:43:00 AM 60.0548 25.2452 297° West  Level Estimated
Fri 05:44:00 AM 60.1048 25.0430 296° West  Level Estimated
Fri 05:45:00 AM 60.1545 24.8402 296° West  Level Estimated
Fri 05:46:00 AM 60.2039 24.6368 296° West  Level Estimated
Fri 05:47:00 AM 60.2530 24.4328 296° West  Level Estimated
Fri 05:48:00 AM 60.3018 24.2281 296° West  Level Estimated
Fri 05:49:00 AM 60.3503 24.0229 296° West  Level Estimated
Fri 05:50:00 AM 60.3984 23.8170 295° West  Level Estimated
Fri 05:51:00 AM 60.4463 23.6106 295° West  Level Estimated
Fri 05:52:00 AM 60.4938 23.4035 295° West  Level Estimated
Fri 05:53:00 AM 60.5410 23.1958 295° West  Level Estimated
Fri 05:54:00 AM 60.5879 22.9875 295° West  Level Estimated
Fri 05:55:00 AM 60.6344 22.7786 295° West  Level Estimated
Fri 05:56:00 AM 60.6806 22.5692 294° West  Level Estimated
Fri 05:57:00 AM 60.7265 22.3591 294° West  Level Estimated
Fri 05:58:00 AM 60.7721 22.1484 294° West  Level Estimated
Fri 05:59:00 AM 60.8173 21.9371 294° West  Level Estimated
Fri 06:00:00 AM 60.8622 21.7252 294° West  Level Estimated
Fri 06:01:00 AM 60.9068 21.5127 293° West  Level Estimated
Fri 06:02:00 AM 60.9510 21.2997 293° West  Level Estimated
Fri 06:03:00 AM 60.9949 21.0860 293° West  Level Estimated
Fri 06:04:00 AM 61.0384 20.8717 293° West  Level Estimated
Fri 06:05:00 AM 61.0816 20.6569 293° West  Level Estimated
Fri 06:06:00 AM 61.1245 20.4415 292° West  Level Estimated
Fri 06:07:00 AM 61.1670 20.2255 292° West  Level Estimated
Fri 06:08:00 AM 61.2092 20.0089 292° West  Level Estimated
Fri 06:09:00 AM 61.2511 19.7917 292° West  Level Estimated
Fri 06:10:00 AM 61.2926 19.5740 292° West  Level Estimated
Fri 06:11:00 AM 61.3337 19.3557 292° West  Level Estimated
Fri 06:12:00 AM 61.3745 19.1368 291° West  Level Estimated
Fri 06:13:00 AM 61.4149 18.9173 291° West  Level Estimated
Fri 06:14:00 AM 61.4550 18.6973 291° West  Level Estimated
Fri 06:15:00 AM 61.4947 18.4767 291° West  Level Estimated
Fri 06:16:00 AM 61.5341 18.2556 291° West  Level Estimated
Fri 06:17:00 AM 61.5731 18.0339 290° West  Level Estimated
Fri 06:18:00 AM 61.6118 17.8116 290° West  Level Estimated
Fri 06:19:00 AM 61.6500 17.5888 290° West  Level Estimated
Fri 06:20:00 AM 61.6880 17.3654 290° West  Level Estimated
Fri 06:21:00 AM 61.7255 17.1415 290° West  Level Estimated
Fri 06:22:00 AM 61.7627 16.9171 289° West  Level Estimated
Fri 06:23:00 AM 61.7995 16.6921 289° West  Level Estimated
Fri 06:24:00 AM 61.8360 16.4665 289° West  Level Estimated
Fri 06:25:00 AM 61.8721 16.2405 289° West  Level Estimated
Fri 06:26:00 AM 61.9078 16.0139 289° West  Level Estimated
Fri 06:27:00 AM 61.9431 15.7867 288° West  Level Estimated
Fri 06:28:00 AM 61.9781 15.5591 288° West  Level Estimated
Fri 06:29:00 AM 62.0127 15.3309 288° West  Level Estimated
Fri 06:30:00 AM 62.0469 15.1022 288° West  Level Estimated
Fri 06:31:00 AM 62.0808 14.8730 288° West  Level Estimated
Fri 06:32:00 AM 62.1142 14.6433 287° West  Level Estimated
Fri 06:33:00 AM 62.1473 14.4131 287° West  Level Estimated
Fri 06:34:00 AM 62.1800 14.1824 287° West  Level Estimated
Fri 06:35:00 AM 62.2123 13.9512 287° West  Level Estimated
Fri 06:36:00 AM 62.2442 13.7195 287° West  Level Estimated
Fri 06:37:00 AM 62.2757 13.4873 286° West  Level Estimated
Fri 06:38:00 AM 62.3069 13.2546 286° West  Level Estimated
Fri 06:39:00 AM 62.3377 13.0215 286° West  Level Estimated
Fri 06:40:00 AM 62.3680 12.7879 286° West  Level Estimated
Fri 06:41:00 AM 62.3980 12.5538 286° West  Level Estimated
Fri 06:42:00 AM 62.4276 12.3192 285° West  Level Estimated
Fri 06:43:00 AM 62.4568 12.0842 285° West  Level Estimated
Fri 06:44:00 AM 62.4855 11.8487 285° West  Level Estimated
Fri 06:45:00 AM 62.5139 11.6128 285° West  Level Estimated
Fri 06:46:00 AM 62.5419 11.3764 285° West  Level Estimated
Fri 06:47:00 AM 62.5695 11.1396 284° West  Level Estimated
Fri 06:48:00 AM 62.5967 10.9023 284° West  Level Estimated
Fri 06:49:00 AM 62.6235 10.6646 284° West  Level Estimated
Fri 06:50:00 AM 62.6499 10.4265 284° West  Level Estimated
Fri 06:51:00 AM 62.6759 10.1880 283° West  Level Estimated
Fri 06:52:00 AM 62.7015 9.9490 283° West  Level Estimated
Fri 06:53:00 AM 62.7266 9.7097 283° West  Level Estimated
Fri 06:54:00 AM 62.7514 9.4699 283° West  Level Estimated
Fri 06:55:00 AM 62.7757 9.2297 283° West  Level Estimated
Fri 06:56:00 AM 62.7997 8.9892 282° West  Level Estimated
Fri 06:57:00 AM 62.8232 8.7482 282° West  Level Estimated
Fri 06:58:00 AM 62.8463 8.5069 282° West  Level Estimated
Fri 06:59:00 AM 62.8690 8.2652 282° West  Level Estimated
Fri 07:00:00 AM 62.8913 8.0231 282° West  Level Estimated
Fri 07:01:00 AM 62.9132 7.7807 281° West  Level Estimated
Fri 07:02:00 AM 62.9347 7.5378 281° West  Level Estimated
Fri 07:03:00 AM 62.9557 7.2947 281° West  Level Estimated
Fri 07:04:00 AM 62.9763 7.0512 281° West  Level Estimated
Fri 07:05:00 AM 62.9965 6.8074 280° West  Level Estimated
Fri 07:06:00 AM 63.0163 6.5632 280° West  Level Estimated
Fri 07:07:00 AM 63.0357 6.3187 280° West  Level Estimated
Fri 07:08:00 AM 63.0546 6.0739 280° West  Level Estimated
Fri 07:09:00 AM 63.0731 5.8287 280° West  Level Estimated
Fri 07:10:00 AM 63.0912 5.5833 279° West  Level Estimated
Fri 07:11:00 AM 63.1089 5.3375 279° West  Level Estimated
Fri 07:12:00 AM 63.1261 5.0915 279° West  Level Estimated
Fri 07:13:00 AM 63.1429 4.8451 279° West  Level Estimated
Fri 07:14:00 AM 63.1593 4.5985 278° West  Level Estimated
Fri 07:15:00 AM 63.1753 4.3516 278° West  Level Estimated
Fri 07:16:00 AM 63.1908 4.1045 278° West  Level Estimated
Fri 07:17:00 AM 63.2059 3.8570 278° West  Level Estimated
Fri 07:18:00 AM 63.2206 3.6094 278° West  Level Estimated
Fri 07:19:00 AM 63.2348 3.3614 277° West  Level Estimated
Fri 07:20:00 AM 63.2486 3.1133 277° West  Level Estimated
Fri 07:21:00 AM 63.2620 2.8649 277° West  Level Estimated
Fri 07:22:00 AM 63.2750 2.6162 277° West  Level Estimated
Fri 07:23:00 AM 63.2875 2.3674 276° West  Level Estimated
Fri 07:24:00 AM 63.2995 2.1183 276° West  Level Estimated
Fri 07:25:00 AM 63.3112 1.8691 276° West  Level Estimated
Fri 07:26:00 AM 63.3224 1.6196 276° West  Level Estimated
Fri 07:27:00 AM 63.3331 1.3700 276° West  Level Estimated
Fri 07:28:00 AM 63.3435 1.1201 275° West  Level Estimated
Fri 07:29:00 AM 63.3534 0.8701 275° West  Level Estimated
Fri 07:30:00 AM 63.3628 0.6199 275° West  Level Estimated
Fri 07:31:00 AM 63.3718 0.3696 275° West  Level Estimated
Fri 07:32:00 AM 63.3804 0.1191 274° West  Level Estimated
Fri 07:33:00 AM 63.3886 -0.1315 274° West  Level Estimated
Fri 07:34:00 AM 63.3963 -0.3823 274° West  Level Estimated
Fri 07:35:00 AM 63.4035 -0.6332 274° West  Level Estimated
Fri 07:36:00 AM 63.4104 -0.8842 274° West  Level Estimated
Fri 07:37:00 AM 63.4167 -1.1354 273° West  Level Estimated
Fri 07:38:00 AM 63.4227 -1.3866 273° West  Level Estimated
Fri 07:39:00 AM 63.4282 -1.6380 273° West  Level Estimated
Fri 07:40:00 AM 63.4332 -1.8894 273° West  Level Estimated
Fri 07:41:00 AM 63.4379 -2.1410 272° West  Level Estimated
Fri 07:42:00 AM 63.4420 -2.3926 272° West  Level Estimated
Fri 07:43:00 AM 63.4458 -2.6443 272° West  Level Estimated
Fri 07:44:00 AM 63.4491 -2.8960 272° West  Level Estimated
Fri 07:45:00 AM 63.4519 -3.1478 272° West  Level Estimated
Fri 07:46:00 AM 63.4543 -3.3996 271° West  Level Estimated
Fri 07:47:00 AM 63.4563 -3.6515 271° West  Level Estimated
Fri 07:48:00 AM 63.4578 -3.9034 271° West  Level Estimated
Fri 07:49:00 AM 63.4589 -4.1554 271° West  Level Estimated
Fri 07:50:00 AM 63.4595 -4.4073 270° West  Level Estimated
Fri 07:51:00 AM 63.4597 -4.6593 270° West  Level Estimated
Fri 07:52:00 AM 63.4594 -4.9112 270° West  Level Estimated
Fri 07:53:00 AM 63.4588 -5.1632 270° West  Level Estimated
Fri 07:54:00 AM 63.4576 -5.4151 270° West  Level Estimated
Fri 07:55:00 AM 63.4560 -5.6670 269° West  Level Estimated
Fri 07:56:00 AM 63.4540 -5.9189 269° West  Level Estimated
Fri 07:57:00 AM 63.4516 -6.1707 269° West  Level Estimated
Fri 07:58:00 AM 63.4487 -6.4225 269° West  Level Estimated
Fri 07:59:00 AM 63.4453 -6.6742 268° West  Level Estimated
Fri 08:00:00 AM 63.4415 -6.9259 268° West  Level Estimated
Fri 08:01:00 AM 63.4373 -7.1775 268° West  Level Estimated
Fri 08:02:00 AM 63.4326 -7.4290 268° West  Level Estimated
Fri 08:03:00 AM 63.4275 -7.6805 268° West  Level Estimated
Fri 08:04:00 AM 63.4219 -7.9318 267° West  Level Estimated
Fri 08:05:00 AM 63.4159 -8.1831 267° West  Level Estimated
Fri 08:06:00 AM 63.4095 -8.4342 267° West  Level Estimated
Fri 08:07:00 AM 63.4026 -8.6852 267° West  Level Estimated
Fri 08:08:00 AM 63.3953 -8.9361 266° West  Level Estimated
Fri 08:09:00 AM 63.3875 -9.1868 266° West  Level Estimated
Fri 08:10:00 AM 63.3793 -9.4375 266° West  Level Estimated
Fri 08:11:00 AM 63.3707 -9.6879 266° West  Level Estimated
Fri 08:12:00 AM 63.3616 -9.9382 265° West  Level Estimated
Fri 08:13:00 AM 63.3521 -10.1884 265° West  Level Estimated
Fri 08:14:00 AM 63.3421 -10.4384 265° West  Level Estimated
Fri 08:15:00 AM 63.3317 -10.6882 265° West  Level Estimated
Fri 08:16:00 AM 63.3209 -10.9378 265° West  Level Estimated
Fri 08:17:00 AM 63.3097 -11.1873 264° West  Level Estimated
Fri 08:18:00 AM 63.2980 -11.4365 264° West  Level Estimated
Fri 08:19:00 AM 63.2858 -11.6855 264° West  Level Estimated
Fri 08:20:00 AM 63.2733 -11.9344 264° West  Level Estimated
Fri 08:21:00 AM 63.2603 -12.1830 263° West  Level Estimated
Fri 08:22:00 AM 63.2468 -12.4313 263° West  Level Estimated
Fri 08:23:00 AM 63.2330 -12.6795 263° West  Level Estimated
Fri 08:24:00 AM 63.2187 -12.9274 263° West  Level Estimated
Fri 08:25:00 AM 63.2039 -13.1750 263° West  Level Estimated
Fri 08:26:00 AM 63.1888 -13.4224 262° West  Level Estimated
Fri 08:27:00 AM 63.1732 -13.6695 262° West  Level Estimated
Fri 08:28:00 AM 63.1572 -13.9164 262° West  Level Estimated
Fri 08:29:00 AM 63.1407 -14.1629 262° West  Level Estimated
Fri 08:30:00 AM 63.1239 -14.4093 261° West  Level Estimated
Fri 08:31:00 AM 63.1065 -14.6553 261° West  Level Estimated
Fri 08:32:00 AM 63.0888 -14.9010 261° West  Level Estimated
Fri 08:33:00 AM 63.0707 -15.1464 261° West  Level Estimated
Fri 08:34:00 AM 63.0521 -15.3915 261° West  Level Estimated
Fri 08:35:00 AM 63.0331 -15.6363 260° West  Level Estimated
Fri 08:36:00 AM 63.0137 -15.8807 260° West  Level Estimated
Fri 08:37:00 AM 62.9939 -16.1248 260° West  Level Estimated
Fri 08:38:00 AM 62.9736 -16.3687 260° West  Level Estimated
Fri 08:39:00 AM 62.9529 -16.6121 260° West  Level Estimated
Fri 08:40:00 AM 62.9318 -16.8552 259° West  Level Estimated
Fri 08:41:00 AM 62.9103 -17.0980 259° West  Level Estimated
Fri 08:42:00 AM 62.8884 -17.3404 259° West  Level Estimated
Fri 08:43:00 AM 62.8660 -17.5824 259° West  Level Estimated
Fri 08:44:00 AM 62.8433 -17.8241 258° West  Level Estimated
Fri 08:45:00 AM 62.8201 -18.0653 258° West  Level Estimated
Fri 08:46:00 AM 62.7965 -18.3062 258° West  Level Estimated
Fri 08:47:00 AM 62.7725 -18.5467 258° West  Level Estimated
Fri 08:48:00 AM 62.7481 -18.7868 258° West  Level Estimated
Fri 08:49:00 AM 62.7233 -19.0266 257° West  Level Estimated
Fri 08:50:00 AM 62.6981 -19.2659 257° West  Level Estimated
Fri 08:51:00 AM 62.6724 -19.5048 257° West  Level Estimated
Fri 08:52:00 AM 62.6464 -19.7432 257° West  Level Estimated
Fri 08:53:00 AM 62.6199 -19.9813 257° West  Level Estimated
Fri 08:54:00 AM 62.5931 -20.2189 256° West  Level Estimated
Fri 08:55:00 AM 62.5658 -20.4561 256° West  Level Estimated
Fri 08:56:00 AM 62.5382 -20.6929 256° West  Level Estimated
Fri 08:57:00 AM 62.5102 -20.9292 256° West  Level Estimated
Fri 08:58:00 AM 62.4817 -21.1651 255° West  Level Estimated
Fri 08:59:00 AM 62.4529 -21.4005 255° West  Level Estimated
Fri 09:00:00 AM 62.4236 -21.6355 255° West  Level Estimated
Fri 09:01:00 AM 62.3940 -21.8700 255° West  Level Estimated
Fri 09:02:00 AM 62.3640 -22.1040 255° West  Level Estimated
Fri 09:03:00 AM 62.3335 -22.3376 254° West  Level Estimated
Fri 09:04:00 AM 62.3027 -22.5707 254° West  Level Estimated
Fri 09:05:00 AM 62.2715 -22.8033 254° West  Level Estimated
Fri 09:06:00 AM 62.2399 -23.0354 254° West  Level Estimated
Fri 09:07:00 AM 62.2080 -23.2670 254° West  Level Estimated
Fri 09:08:00 AM 62.1756 -23.4981 253° West  Level Estimated
Fri 09:09:00 AM 62.1429 -23.7288 253° West  Level Estimated
Fri 09:10:00 AM 62.1098 -23.9589 253° West  Level Estimated
Fri 09:11:00 AM 62.0762 -24.1886 253° West  Level Estimated
Fri 09:12:00 AM 62.0424 -24.4177 253° West  Level Estimated
Fri 09:13:00 AM 62.0081 -24.6463 252° West  Level Estimated
Fri 09:14:00 AM 61.9735 -24.8744 252° West  Level Estimated
Fri 09:15:00 AM 61.9384 -25.1020 252° West  Level Estimated
Fri 09:16:00 AM 61.9030 -25.3291 252° West  Level Estimated
Fri 09:17:00 AM 61.8673 -25.5556 252° West  Level Estimated
Fri 09:18:00 AM 61.8312 -25.7816 251° West  Level Estimated
Fri 09:19:00 AM 61.7946 -26.0070 251° West  Level Estimated
Fri 09:20:00 AM 61.7578 -26.2320 251° West  Level Estimated
Fri 09:21:00 AM 61.7205 -26.4564 251° West  Level Estimated
Fri 09:22:00 AM 61.6829 -26.6802 251° West  Level Estimated
Fri 09:23:00 AM 61.6449 -26.9035 250° West  Level Estimated
Fri 09:24:00 AM 61.6066 -27.1262 250° West  Level Estimated
Fri 09:25:00 AM 61.5679 -27.3484 250° West  Level Estimated
Fri 09:26:00 AM 61.5288 -27.5700 250° West  Level Estimated
Fri 09:27:00 AM 61.4894 -27.7911 250° West  Level Estimated
Fri 09:28:00 AM 61.4497 -28.0116 249° West  Level Estimated
Fri 09:29:00 AM 61.4095 -28.2316 249° West  Level Estimated
Fri 09:30:00 AM 61.3690 -28.4510 249° West  Level Estimated
Fri 09:31:00 AM 61.3282 -28.6698 249° West  Level Estimated
Fri 09:32:00 AM 61.2870 -28.8880 249° West  Level Estimated
Fri 09:33:00 AM 61.2455 -29.1057 248° West  Level Estimated
Fri 09:34:00 AM 61.2036 -29.3228 248° West  Level Estimated
Fri 09:35:00 AM 61.1614 -29.5393 248° West  Level Estimated
Fri 09:36:00 AM 61.1188 -29.7552 248° West  Level Estimated
Fri 09:37:00 AM 61.0759 -29.9705 248° West  Level Estimated
Fri 09:38:00 AM 61.0326 -30.1853 247° West  Level Estimated
Fri 09:39:00 AM 60.9891 -30.3995 247° West  Level Estimated
Fri 09:40:00 AM 60.9451 -30.6130 247° West  Level Estimated
Fri 09:41:00 AM 60.9008 -30.8260 247° West  Level Estimated
Fri 09:42:00 AM 60.8562 -31.0384 247° West  Level Estimated
Fri 09:43:00 AM 60.8113 -31.2502 247° West  Level Estimated
Fri 09:44:00 AM 60.7660 -31.4614 246° West  Level Estimated
Fri 09:45:00 AM 60.7204 -31.6721 246° West  Level Estimated
Fri 09:46:00 AM 60.6745 -31.8821 246° West  Level Estimated
Fri 09:47:00 AM 60.6282 -32.0915 246° West  Level Estimated
Fri 09:48:00 AM 60.5816 -32.3003 246° West  Level Estimated
Fri 09:49:00 AM 60.5347 -32.5085 245° Southwest  Level Estimated
Fri 09:50:00 AM 60.4875 -32.7161 245° Southwest  Level Estimated
Fri 09:51:00 AM 60.4399 -32.9231 245° Southwest  Level Estimated
Fri 09:52:00 AM 60.3894 -33.1408 245° Southwest  Level Estimated
Fri 09:53:00 AM 60.3385 -33.3579 245° Southwest  Level Estimated
Fri 09:54:00 AM 60.2873 -33.5743 245° Southwest  Level Estimated
Fri 09:55:00 AM 60.2357 -33.7900 244° Southwest  Level Estimated
Fri 09:56:00 AM 60.1837 -34.0051 244° Southwest  Level Estimated
Fri 09:57:00 AM 60.1315 -34.2194 244° Southwest  Level Estimated
Fri 09:58:00 AM 60.0788 -34.4331 244° Southwest  Level Estimated
Fri 09:59:00 AM 60.0258 -34.6461 244° Southwest  Level Estimated
Fri 10:00:00 AM 59.9725 -34.8584 243° Southwest  Level Estimated
Fri 10:01:00 AM 59.9189 -35.0700 243° Southwest  Level Estimated
Fri 10:02:00 AM 59.8649 -35.2810 243° Southwest  Level Estimated
Fri 10:03:00 AM 59.8106 -35.4912 243° Southwest  Level Estimated
Fri 10:04:00 AM 59.7559 -35.7008 243° Southwest  Level Estimated
Fri 10:05:00 AM 59.7009 -35.9097 243° Southwest  Level Estimated
Fri 10:06:00 AM 59.6456 -36.1179 242° Southwest  Level Estimated
Fri 10:07:00 AM 59.5900 -36.3254 242° Southwest  Level Estimated
Fri 10:08:00 AM 59.5340 -36.5322 242° Southwest  Level Estimated
Fri 10:09:00 AM 59.4777 -36.7383 242° Southwest  Level Estimated
Fri 10:10:00 AM 59.4210 -36.9438 242° Southwest  Level Estimated
Fri 10:11:00 AM 59.3641 -37.1485 241° Southwest  Level Estimated
Fri 10:12:00 AM 59.3068 -37.3526 241° Southwest  Level Estimated
Fri 10:13:00 AM 59.2492 -37.5560 241° Southwest  Level Estimated
Fri 10:14:00 AM 59.1913 -37.7587 241° Southwest  Level Estimated
Fri 10:15:00 AM 59.1331 -37.9607 241° Southwest  Level Estimated
Fri 10:16:00 AM 59.0746 -38.1620 241° Southwest  Level Estimated
Fri 10:17:00 AM 59.0157 -38.3626 240° Southwest  Level Estimated
Fri 10:18:00 AM 58.9566 -38.5625 240° Southwest  Level Estimated
Fri 10:19:00 AM 58.8971 -38.7618 240° Southwest  Level Estimated
Fri 10:20:00 AM 58.8374 -38.9604 240° Southwest  Level Estimated
Fri 10:21:00 AM 58.7773 -39.1582 240° Southwest  Level Estimated
Fri 10:22:00 AM 58.7169 -39.3554 240° Southwest  Level Estimated
Fri 10:23:00 AM 58.6562 -39.5519 239° Southwest  Level Estimated
Fri 10:24:00 AM 58.5953 -39.7478 239° Southwest  Level Estimated
Fri 10:25:00 AM 58.5340 -39.9429 239° Southwest  Level Estimated
Fri 10:26:00 AM 58.4725 -40.1374 239° Southwest  Level Estimated
Fri 10:27:00 AM 58.4106 -40.3312 239° Southwest  Level Estimated
Fri 10:28:00 AM 58.3485 -40.5243 239° Southwest  Level Estimated
Fri 10:29:00 AM 58.2860 -40.7167 238° Southwest  Level Estimated
Fri 10:30:00 AM 58.2233 -40.9084 238° Southwest  Level Estimated
Fri 10:31:00 AM 58.1603 -41.0995 238° Southwest  Level Estimated
Fri 10:32:00 AM 58.0970 -41.2899 238° Southwest  Level Estimated
Fri 10:33:00 AM 58.0335 -41.4796 238° Southwest  Level Estimated
Fri 10:34:00 AM 57.9663 -41.6785 238° Southwest  Level Estimated
Fri 10:34:08 AM 63.4167 -55.8833 237° Southwest 430 495 37,000  Level Gander Center
Fri 10:35:00 AM 57.8987 -41.8767 237° Southwest  Level Estimated
Fri 10:35:08 AM 63.3500 -56.0500 228° Southwest 450 518 37,000  Level Gander Center
Fri 10:36:00 AM 57.8309 -42.0741 237° Southwest  Level Estimated
Fri 10:36:08 AM 63.2667 -56.3500 238° Southwest 450 518 37,000  Level Gander Center
Fri 10:37:00 AM 57.7628 -42.2707 237° Southwest  Level Estimated
Fri 10:37:08 AM 63.2000 -56.5500 234° Southwest 460 529 37,000  Level Gander Center
Fri 10:38:00 AM 57.6944 -42.4667 237° Southwest  Level Estimated
Fri 10:38:08 AM 63.1167 -56.7833 232° Southwest 460 529 37,000  Level Gander Center
Fri 10:39:00 AM 57.6256 -42.6618 237° Southwest  Level Estimated
Fri 10:39:08 AM 63.0500 -57.0000 236° Southwest 480 552 37,000  Level Gander Center
Fri 10:40:08 AM 63.0000 -57.2000 241° Southwest 460 529 37,000  Level Gander Center
Fri 10:41:08 AM 62.9000 -57.4333 227° Southwest 450 518 37,000  Level Gander Center
Fri 10:42:08 AM 62.8500 -57.6500 243° Southwest 460 529 37,000  Level Gander Center
Fri 10:43:08 AM 62.7667 -57.8833 232° Southwest 460 529 37,000  Level Gander Center
Fri 10:44:08 AM 62.6833 -58.1000 230° Southwest 460 529 37,000  Level Gander Center
Fri 10:45:08 AM 62.6167 -58.3333 238° Southwest 460 529 37,000  Level Gander Center
Fri 10:46:08 AM 62.5333 -58.5500 230° Southwest 460 529 37,000  Level Gander Center
Fri 10:47:08 AM 62.4500 -58.7667 230° Southwest 460 529 37,000  Level Gander Center
Fri 10:47:44 AM 62.4000 -58.8167 205° Southwest 460 529 37,000  Level Montreal Center
Fri 10:48:44 AM 62.3333 -59.0500 238° Southwest 470 541 37,000  Level Montreal Center
Fri 10:49:44 AM 62.2500 -59.2833 233° Southwest 460 529 37,000  Level Montreal Center
Fri 10:50:44 AM 62.1667 -59.4667 226° Southwest 460 529 37,000  Level Montreal Center
Fri 10:51:44 AM 62.1000 -59.7000 239° Southwest 460 529 37,000  Level Montreal Center
Fri 10:52:44 AM 62.0000 -59.9333 228° Southwest 460 529 37,000  Level Montreal Center
Fri 10:53:44 AM 61.9167 -60.0833 220° Southwest 460 529 37,000  Level Montreal Center
Fri 10:54:44 AM 61.8167 -60.2667 221° Southwest 450 518 37,000  Level Montreal Center
Fri 10:55:44 AM 61.7167 -60.4667 224° Southwest 450 518 37,000  Level Montreal Center
Fri 10:56:44 AM 61.6333 -60.6167 221° Southwest 450 518 37,000  Level Montreal Center
Fri 10:57:44 AM 61.5333 -60.8167 224° Southwest 460 529 37,000  Level Montreal Center
Fri 10:58:44 AM 61.4333 -60.9667 216° Southwest 450 518 37,000  Level Montreal Center
Fri 10:59:44 AM 61.3333 -61.1500 221° Southwest 460 529 37,000  Level Montreal Center
Fri 11:00:44 AM 61.2500 -61.3333 227° Southwest 460 529 37,000  Level Montreal Center
Fri 11:01:44 AM 61.1500 -61.4833 216° Southwest 460 529 37,000  Level Montreal Center
Fri 11:02:44 AM 61.0500 -61.6667 222° Southwest 450 518 37,000  Level Montreal Center
Fri 11:03:44 AM 60.9667 -61.8167 221° Southwest 450 518 37,000  Level Montreal Center
Fri 11:04:44 AM 60.8667 -62.0000 222° Southwest 460 529 37,000  Level Montreal Center
Fri 11:06:08 AM 60.7167 -62.3333 227° Southwest 490 564 37,000  Level Gander Center
Fri 11:07:08 AM 60.6333 -62.5000 224° Southwest 460 529 37,000  Level Gander Center
Fri 11:07:44 AM 60.5833 -62.6000 225° Southwest 490 564 37,000  Level Montreal Center
Fri 11:08:44 AM 60.5333 -62.8333 247° West 470 541 37,000  Level Montreal Center
Fri 11:09:44 AM 60.4833 -63.1000 249° West 470 541 37,000  Level Montreal Center
Fri 11:10:44 AM 60.4500 -63.3500 255° West 470 541 37,000  Level Montreal Center
Fri 11:11:44 AM 60.4000 -63.5833 247° West 470 541 37,000  Level Montreal Center
Fri 11:12:44 AM 60.3500 -63.8333 248° West 460 529 37,000  Level Montreal Center
Fri 11:13:44 AM 60.3000 -64.0500 245° Southwest 470 541 37,000  Level Montreal Center
Fri 11:14:44 AM 60.2667 -64.3167 256° West 470 541 37,000  Level Montreal Center
Fri 11:15:44 AM 60.2167 -64.5667 248° West 470 541 37,000  Level Montreal Center
Fri 11:16:44 AM 60.1667 -64.8167 248° West 470 541 37,000  Level Montreal Center
Fri 11:17:44 AM 60.1000 -65.0167 236° Southwest 460 529 37,000  Level Montreal Center
Fri 11:18:44 AM 60.0167 -65.2500 235° Southwest 460 529 37,000  Level Montreal Center
Fri 11:19:44 AM 59.9167 -65.4167 220° Southwest 450 518 37,000  Level Montreal Center
Fri 11:20:44 AM 59.8333 -65.5667 222° Southwest 450 518 37,000 -50 Level Montreal Center
Fri 11:21:44 AM 59.7333 -65.7333 220° Southwest 450 518 36,900 -300 Descending Montreal Center
Fri 11:22:44 AM 59.6333 -65.9000 220° Southwest 450 518 36,400 -450 Descending Montreal Center
Fri 11:23:44 AM 59.5500 -66.0667 225° Southwest 450 518 36,000 -200 Descending Montreal Center
Fri 11:24:44 AM 59.4667 -66.2167 222° Southwest 440 506 36,000  Level Montreal Center
Fri 11:25:44 AM 59.3500 -66.3833 216° Southwest 450 518 36,000  Level Montreal Center
Fri 11:26:44 AM 59.2667 -66.5333 223° Southwest 450 518 36,000  Level Montreal Center
Fri 11:27:44 AM 59.1667 -66.7000 221° Southwest 450 518 36,000  Level Montreal Center
Fri 11:28:44 AM 59.0833 -66.8500 223° Southwest 450 518 36,000  Level Montreal Center
Fri 11:29:44 AM 58.9833 -67.0167 221° Southwest 450 518 36,000  Level Montreal Center
Fri 11:30:44 AM 58.8833 -67.1667 218° Southwest 450 518 36,000  Level Montreal Center
Fri 11:31:44 AM 58.7833 -67.3167 218° Southwest 450 518 36,000  Level Montreal Center
Fri 11:32:44 AM 58.6833 -67.4667 218° Southwest 450 518 36,000  Level Montreal Center
Fri 11:33:44 AM 58.6000 -67.6167 223° Southwest 450 518 36,000  Level Montreal Center
Fri 11:34:44 AM 58.5000 -67.7833 221° Southwest 450 518 36,000  Level Montreal Center
Fri 11:35:44 AM 58.4000 -67.9333 218° Southwest 450 518 36,000  Level Montreal Center
Fri 11:36:44 AM 58.3000 -68.0833 218° Southwest 450 518 36,000  Level Montreal Center
Fri 11:37:44 AM 58.2000 -68.2333 218° Southwest 460 529 36,000  Level Montreal Center
Fri 11:39:27 AM 58.0333 -68.5333 224° Southwest 500 575 36,000  Level Gander Center
Fri 11:40:27 AM 57.9500 -68.6667 220° Southwest 460 529 36,000  Level Gander Center
Fri 11:41:27 AM 57.8333 -68.8167 214° Southwest 450 518 36,000  Level Gander Center
Fri 11:42:27 AM 57.7333 -68.9500 215° Southwest 450 518 36,000  Level Gander Center
Fri 11:43:27 AM 57.6333 -69.0833 216° Southwest 450 518 36,000  Level Gander Center
Fri 11:44:27 AM 57.5333 -69.2167 216° Southwest 450 518 36,000  Level Gander Center
Fri 11:45:27 AM 57.4333 -69.3500 216° Southwest 450 518 36,000  Level Gander Center
Fri 11:46:27 AM 57.3333 -69.4833 216° Southwest 450 518 36,000  Level Gander Center
Fri 11:47:27 AM 57.2333 -69.6167 216° Southwest 450 518 36,000  Level Gander Center
Fri 11:48:27 AM 57.1333 -69.7500 216° Southwest 450 518 36,000  Level Gander Center
Fri 11:49:27 AM 57.0333 -69.8833 216° Southwest 450 518 36,000  Level Gander Center
Fri 11:50:27 AM 56.9333 -70.0167 216° Southwest 450 518 36,000  Level Gander Center
Fri 11:51:27 AM 56.8167 -70.1333 209° Southwest 450 518 36,000  Level Gander Center
Fri 11:52:27 AM 56.7167 -70.2333 209° Southwest 450 518 36,000  Level Gander Center
Fri 11:53:27 AM 56.6167 -70.3667 216° Southwest 450 518 36,000  Level Gander Center
Fri 11:54:27 AM 56.5000 -70.5000 212° Southwest 450 518 36,000  Level Gander Center
Fri 11:55:27 AM 56.4000 -70.6167 213° Southwest 450 518 36,000  Level Gander Center
Fri 11:56:27 AM 56.2833 -70.7500 212° Southwest 450 518 36,000  Level Gander Center
Fri 11:57:27 AM 56.1833 -70.8333 205° Southwest 450 518 36,000  Level Gander Center
Fri 11:58:27 AM 56.0667 -70.9667 213° Southwest 450 518 36,000  Level Gander Center
Fri 11:59:27 AM 55.9667 -71.0500 205° Southwest 450 518 36,000  Level Gander Center
Fri 12:00:27 PM 55.8500 -71.1833 213° Southwest 450 518 36,000  Level Gander Center
Fri 12:01:27 PM 55.7500 -71.3000 213° Southwest 450 518 36,000  Level Gander Center
Fri 12:02:27 PM 55.6500 -71.4000 209° Southwest 450 518 36,000  Level Gander Center
Fri 12:03:27 PM 55.5333 -71.5167 210° Southwest 460 529 36,000  Level Gander Center
Fri 12:04:27 PM 55.4167 -71.6333 210° Southwest 450 518 36,000  Level Gander Center
Fri 12:05:27 PM 55.3167 -71.7667 217° Southwest 450 518 36,000  Level Gander Center
Fri 12:06:27 PM 55.2000 -71.8500 202° Southwest 450 518 36,000  Level Gander Center
Fri 12:07:27 PM 55.1000 -71.9667 214° Southwest 450 518 36,000  Level Gander Center
Fri 12:08:27 PM 54.9833 -72.0833 210° Southwest 450 518 36,000  Level Gander Center
Fri 12:09:27 PM 54.8667 -72.2000 210° Southwest 450 518 36,000  Level Gander Center
Fri 12:10:27 PM 54.7833 -72.3000 215° Southwest 450 518 36,000  Level Gander Center
Fri 12:11:27 PM 54.6667 -72.4167 210° Southwest 460 529 36,000  Level Gander Center
Fri 12:12:27 PM 54.5500 -72.5167 206° Southwest 450 518 36,000  Level Gander Center
Fri 12:13:27 PM 54.4500 -72.6333 214° Southwest 460 529 36,000  Level Gander Center
Fri 12:14:27 PM 54.3333 -72.7167 203° Southwest 450 518 36,000  Level Gander Center
Fri 12:15:27 PM 54.2167 -72.8333 210° Southwest 450 518 36,000  Level Gander Center
Fri 12:16:27 PM 54.1167 -72.9500 214° Southwest 450 518 36,000  Level Gander Center
Fri 12:17:27 PM 54.0000 -73.0333 203° Southwest 450 518 36,000  Level Gander Center
Fri 12:18:27 PM 53.9000 -73.1500 215° Southwest 450 518 36,000  Level Gander Center
Fri 12:19:27 PM 53.7833 -73.2500 207° Southwest 450 518 36,000  Level Gander Center
Fri 12:20:27 PM 53.6833 -73.3667 215° Southwest 450 518 36,000  Level Gander Center
Fri 12:21:27 PM 53.5667 -73.4833 211° Southwest 450 518 36,000  Level Gander Center
Fri 12:22:27 PM 53.4667 -73.5667 206° Southwest 450 518 36,000  Level Gander Center
Fri 12:23:27 PM 53.3500 -73.6667 207° Southwest 450 518 36,000  Level Gander Center
Fri 12:24:27 PM 53.2333 -73.7833 211° Southwest 450 518 36,000  Level Gander Center
Fri 12:25:27 PM 53.1167 -73.8667 203° Southwest 450 518 36,000  Level Gander Center
Fri 12:26:27 PM 53.0167 -73.9667 211° Southwest 450 518 36,000  Level Gander Center
Fri 12:27:27 PM 52.9167 -74.0833 215° Southwest 450 518 36,000  Level Gander Center
Fri 12:28:27 PM 52.8000 -74.1667 203° Southwest 450 518 36,000  Level Gander Center
Fri 12:29:27 PM 52.7000 -74.2667 211° Southwest 450 518 36,000  Level Gander Center
Fri 12:30:27 PM 52.5833 -74.3500 203° Southwest 450 518 36,000  Level Gander Center
Fri 12:31:27 PM 52.4667 -74.4500 208° Southwest 450 518 36,000  Level Gander Center
Fri 12:32:27 PM 52.3500 -74.5500 208° Southwest 450 518 36,000  Level Gander Center
Fri 12:33:27 PM 52.2500 -74.6667 216° Southwest 450 518 36,000  Level Gander Center
Fri 12:34:27 PM 52.1333 -74.7333 199° South 450 518 36,000  Level Gander Center
Fri 12:35:27 PM 52.0167 -74.8333 208° Southwest 450 518 36,000  Level Gander Center
Fri 12:36:27 PM 51.9167 -74.9500 216° Southwest 450 518 36,000  Level Gander Center
Fri 12:37:27 PM 51.8167 -75.0167 202° Southwest 450 518 36,000  Level Gander Center
Fri 12:38:27 PM 51.7000 -75.1333 212° Southwest 450 518 36,000  Level Gander Center
Fri 12:39:18 PM 51.6000 -75.1500 186° South 440 506 36,000  Level Montreal Center
Fri 12:40:18 PM 51.5000 -75.2667 216° Southwest 450 518 36,000  Level Montreal Center
Fri 12:41:18 PM 51.3833 -75.3500 204° Southwest 440 506 36,000  Level Montreal Center
Fri 12:42:18 PM 51.2833 -75.4333 208° Southwest 440 506 36,000  Level Montreal Center
Fri 12:43:18 PM 51.1667 -75.5333 208° Southwest 440 506 36,000  Level Montreal Center
Fri 12:44:18 PM 51.0667 -75.6167 208° Southwest 440 506 36,000  Level Montreal Center
Fri 12:45:18 PM 50.9500 -75.7000 204° Southwest 440 506 36,000  Level Montreal Center
Fri 12:46:18 PM 50.8333 -75.8000 208° Southwest 440 506 36,000  Level Montreal Center
Fri 12:47:18 PM 50.7333 -75.8833 208° Southwest 440 506 36,000  Level Montreal Center
Fri 12:48:18 PM 50.6167 -75.9667 204° Southwest 440 506 36,000  Level Montreal Center
Fri 12:49:18 PM 50.5167 -76.0667 212° Southwest 440 506 36,000  Level Montreal Center
Fri 12:50:18 PM 50.4000 -76.1500 204° Southwest 440 506 36,000  Level Montreal Center
Fri 12:51:18 PM 50.3000 -76.2333 208° Southwest 440 506 36,000  Level Montreal Center
Fri 12:52:18 PM 50.1833 -76.3333 209° Southwest 440 506 36,000  Level Montreal Center
Fri 12:53:18 PM 50.0833 -76.4167 208° Southwest 430 495 36,000  Level Montreal Center
Fri 12:54:18 PM 49.9500 -76.4833 198° South 440 506 36,000  Level Montreal Center
Fri 12:55:18 PM 49.8500 -76.5667 208° Southwest 430 495 36,000  Level Montreal Center
Fri 12:56:18 PM 49.7333 -76.6667 209° Southwest 430 495 36,000  Level Montreal Center
Fri 12:57:18 PM 49.6333 -76.7500 208° Southwest 440 506 36,000  Level Montreal Center
Fri 12:58:18 PM 49.5333 -76.8167 203° Southwest 420 483 36,000  Level Montreal Center
Fri 12:59:18 PM 49.4167 -76.9167 209° Southwest 450 518 36,000  Level Montreal Center
Fri 01:00:18 PM 49.3000 -77.0000 205° Southwest 440 506 36,000  Level Montreal Center
Fri 01:01:18 PM 49.2000 -77.0667 204° Southwest 430 495 36,000  Level Montreal Center
Fri 01:02:18 PM 49.1000 -77.1500 209° Southwest 440 506 36,000  Level Montreal Center
Fri 01:03:18 PM 48.9833 -77.2500 209° Southwest 430 495 36,000  Level Montreal Center
Fri 01:04:18 PM 48.8667 -77.3167 201° Southwest 430 495 36,000  Level Montreal Center
Fri 01:05:18 PM 48.7500 -77.4000 205° Southwest 430 495 36,000  Level Montreal Center
Fri 01:06:18 PM 48.6500 -77.5000 213° Southwest 430 495 36,000  Level Montreal Center
Fri 01:07:18 PM 48.5333 -77.5667 201° Southwest 430 495 36,000  Level Montreal Center
Fri 01:08:18 PM 48.4333 -77.6333 204° Southwest 430 495 36,000  Level Montreal Center
Fri 01:09:18 PM 48.3333 -77.7167 209° Southwest 430 495 36,000  Level Montreal Center
Fri 01:10:18 PM 48.2167 -77.8000 205° Southwest 430 495 36,000  Level Montreal Center
Fri 01:11:18 PM 48.1167 -77.8833 209° Southwest 430 495 36,000  Level Montreal Center
Fri 01:12:18 PM 47.9833 -77.9500 199° South 430 495 36,000  Level Montreal Center
Fri 01:13:18 PM 47.8833 -78.0167 204° Southwest 430 495 36,000  Level Montreal Center
Fri 01:14:18 PM 47.7833 -78.1167 214° Southwest 430 495 36,000  Level Montreal Center
Fri 01:15:18 PM 47.6667 -78.1833 201° Southwest 430 495 36,000  Level Montreal Center
Fri 01:16:18 PM 47.5667 -78.2500 204° Southwest 430 495 36,000  Level Montreal Center
Fri 01:17:18 PM 47.4667 -78.3333 209° Southwest 430 495 36,000  Level Montreal Center
Fri 01:18:18 PM 47.3667 -78.4000 204° Southwest 420 483 36,000  Level Montreal Center
Fri 01:19:18 PM 47.2333 -78.4833 203° Southwest 420 483 36,000  Level Montreal Center
Fri 01:20:18 PM 47.1333 -78.5500 204° Southwest 420 483 36,000  Level Montreal Center
Fri 01:21:18 PM 47.0333 -78.6333 210° Southwest 420 483 36,000  Level Montreal Center
Fri 01:22:07 PM 46.9500 -78.6500 188° South 430 495 36,000  Level Toronto Center
Fri 01:23:07 PM 46.8333 -78.7333 206° Southwest 430 495 36,000  Level Toronto Center
Fri 01:24:07 PM 46.7333 -78.8000 205° Southwest 430 495 36,000  Level Toronto Center
Fri 01:25:07 PM 46.6167 -78.8833 206° Southwest 430 495 36,000  Level Toronto Center
Fri 01:30:44 PM 46.0385 -79.2933 205° Southwest 427 491 36,000  Level FlightAware ADS-B (CYYZ)
Fri 01:32:49 PM 45.8254 -79.4323 205° Southwest 425 489 36,000  Level FlightAware ADS-B (CYYZ)
Fri 01:33:13 PM 45.7506 -79.4807 205° Southwest 426 490 36,000  Level FlightAware ADS-B (CYYZ)
Fri 01:37:47 PM 45.2604 -79.7951 204° Southwest 422 486 36,000  Level FlightAware ADS-B (EPLB / LUZ)
Fri 01:38:09 PM 45.2222 -79.8194 205° Southwest 422 486 36,000  Level FlightAware ADS-B (CYYZ)
Fri 01:38:39 PM 45.1684 -79.8535 205° Southwest 421 484 36,000  Level FlightAware ADS-B (CYYZ)
Fri 01:38:48 PM 45.1499 -79.8652 204° Southwest 421 484 36,000  Level FlightAware ADS-B (EPLB / LUZ)
Fri 01:39:05 PM 45.1203 -79.8838 205° Southwest 422 486 36,000  Level FlightAware ADS-B (CYYZ)
Fri 01:39:29 PM 45.0817 -79.9081 204° Southwest 421 484 36,000  Level FlightAware ADS-B (EPLB / LUZ)
Fri 01:39:37 PM 45.0624 -79.9203 205° Southwest 422 486 36,000  Level FlightAware ADS-B (CYYZ)
Fri 01:40:02 PM 45.0189 -79.9477 204° Southwest 421 484 36,000  Level FlightAware ADS-B (EPLB / LUZ)
Fri 01:40:09 PM 45.0056 -79.9561 205° Southwest 422 486 36,000  Level FlightAware ADS-B (CYYZ)
Fri 01:40:39 PM 44.9552 -79.9878 205° Southwest 422 486 36,000  Level FlightAware ADS-B (CYYZ)
Fri 01:40:42 PM 44.9475 -79.9926 204° Southwest 422 486 36,000  Level FlightAware ADS-B (EPLB / LUZ)
Fri 01:41:10 PM 44.8989 -80.0231 205° Southwest 422 486 36,000  Level FlightAware ADS-B (CYYZ)
Fri 01:41:13 PM 44.8948 -80.0258 204° Southwest 422 486 36,000  Level FlightAware ADS-B (EPLB / LUZ)
Fri 01:41:39 PM 44.8446 -80.0571 204° Southwest 423 487 36,000  Level FlightAware ADS-B (CYYZ)
Fri 01:41:54 PM 44.8195 -80.0727 204° Southwest 422 486 36,000  Level FlightAware ADS-B (EPLB / LUZ)
Fri 01:42:09 PM 44.7925 -80.0896 204° Southwest 423 487 36,000  Level FlightAware ADS-B (CYYZ)
Fri 01:42:40 PM 44.7380 -80.1235 204° Southwest 424 488 36,000  Level FlightAware ADS-B (CYYZ)
Fri 01:43:09 PM 44.6851 -80.1564 205° Southwest 424 488 36,000  Level FlightAware ADS-B (CYYZ)
Fri 01:43:39 PM 44.6305 -80.1904 204° Southwest 425 489 36,000  Level FlightAware ADS-B (CYYZ)
Fri 01:44:09 PM 44.5769 -80.2236 204° Southwest 426 490 36,000  Level FlightAware ADS-B (CYYZ)
Fri 01:44:18 PM 44.5612 -80.2334 204° Southwest 425 489 36,000  Level FlightAware ADS-B (EPLB / LUZ)
Fri 01:44:39 PM 44.5236 -80.2566 204° Southwest 427 491 36,000  Level FlightAware ADS-B (CYYZ)
Fri 01:44:53 PM 44.5957 -80.2120 204° Southwest 421 484 36,000  Level FlightAware ADS-B
Fri 01:45:09 PM 44.4697 -80.2897 204° Southwest 428 493 36,000  Level FlightAware ADS-B (CYYZ)
Fri 01:45:40 PM 44.4171 -80.3220 204° Southwest 429 494 36,000  Level FlightAware ADS-B (CYYZ)
Fri 01:46:10 PM 44.3598 -80.3571 204° Southwest 430 495 36,000  Level FlightAware ADS-B (CYYZ)
Fri 01:46:39 PM 44.3066 -80.3898 204° Southwest 432 497 36,000  Level FlightAware ADS-B (CYYZ)
Fri 01:47:09 PM 44.2507 -80.4240 204° Southwest 433 498 36,000  Level FlightAware ADS-B (CYYZ)
Fri 01:47:13 PM 44.2447 -80.4277 204° Southwest 433 498 36,000  Level FlightAware ADS-B (EPLB / LUZ)
Fri 01:47:39 PM 44.1955 -80.4578 204° Southwest 434 499 36,000  Level FlightAware ADS-B (CYYZ)
Fri 01:47:53 PM 44.1712 -80.4726 204° Southwest 434 499 36,000  Level FlightAware ADS-B (EPLB / LUZ)
Fri 01:48:09 PM 44.1401 -80.4915 204° Southwest 437 503 36,000  Level FlightAware ADS-B (CYYZ)
Fri 01:48:40 PM 44.0847 -80.5251 204° Southwest 437 503 36,000  Level FlightAware ADS-B (CYYZ)
Fri 01:48:47 PM 44.0717 -80.5331 204° Southwest 436 502 36,000  Level FlightAware ADS-B (EPLB / LUZ)
Fri 01:49:10 PM 44.0348 -80.5555 204° Southwest 436 502 36,000  Level FlightAware ADS-B (CYYZ)
Fri 01:49:27 PM 43.9982 -80.5776 204° Southwest 437 503 36,000  Level FlightAware ADS-B (EPLB / LUZ)
Fri 01:49:39 PM 43.9764 -80.5908 204° Southwest 437 503 36,000  Level FlightAware ADS-B (CYYZ)
Fri 01:50:09 PM 43.9220 -80.6237 204° Southwest 439 505 36,000  Level FlightAware ADS-B (CYYZ)
Fri 01:50:12 PM 43.9144 -80.6282 204° Southwest 438 504 36,000  Level FlightAware ADS-B (EPLB / LUZ)
Fri 01:50:35 PM 43.8923 -80.6416 204° Southwest 440 506 36,000  Level FlightAware ADS-B (CYYZ)
Fri 01:50:55 PM 43.8439 -80.6708 203° Southwest 438 504 36,000  Level FlightAware ADS-B (EPLB / LUZ)
Fri 01:51:09 PM 43.8312 -80.6784 204° Southwest 438 504 36,000  Level FlightAware ADS-B (CYYZ)
Fri 01:51:40 PM 43.7531 -80.7254 204° Southwest 437 503 36,000  Level FlightAware ADS-B (CYYZ)
Fri 01:52:08 PM 43.7000 -80.7572 204° Southwest 435 501 36,000  Level FlightAware ADS-B (CYYZ)
Fri 01:52:21 PM 43.6764 -80.7714 204° Southwest 434 499 36,000  Level FlightAware ADS-B (EPLB / LUZ)
Fri 01:52:30 PM 43.6604 -80.7810 204° Southwest 435 501 36,000  Level FlightAware ADS-B (CYYZ)
Fri 01:52:54 PM 43.6156 -80.8076 203° Southwest 434 499 36,000  Level FlightAware ADS-B (EPLB / LUZ)
Fri 01:53:09 PM 43.5862 -80.8252 204° Southwest 434 499 36,000  Level FlightAware ADS-B (CYYZ)
Fri 01:53:34 PM 43.5835 -80.8268 204° Southwest 434 499 36,000  Level FlightAware ADS-B (EPLB / LUZ)
Fri 01:53:39 PM 43.5327 -80.8571 204° Southwest 436 502 36,000  Level FlightAware ADS-B (CYYZ)
Fri 01:54:09 PM 43.4757 -80.8910 204° Southwest 437 503 36,000  Level FlightAware ADS-B (CYYZ)
Fri 01:54:13 PM 43.5033 -80.8746 203° Southwest 436 502 36,000  Level FlightAware ADS-B (EPLB / LUZ)
Fri 01:54:39 PM 43.4223 -80.9227 204° Southwest 438 504 36,000  Level FlightAware ADS-B (CYYZ)
Fri 01:54:55 PM 43.3943 -80.9393 203° Southwest 436 502 36,000  Level FlightAware ADS-B (EPLB / LUZ)
Fri 01:55:09 PM 43.3729 -80.9519 204° Southwest 436 502 36,000  Level FlightAware ADS-B (CYYZ)
Fri 01:55:28 PM 43.3391 -80.9719 203° Southwest 435 501 36,000  Level FlightAware ADS-B (EPLB / LUZ)
Fri 01:55:39 PM 43.3241 -80.9808 204° Southwest 435 501 36,000  Level FlightAware ADS-B (CYYZ)
Fri 01:56:08 PM 43.2577 -81.0200 203° Southwest 434 499 36,000  Level FlightAware ADS-B (EPLB / LUZ)
Fri 01:56:09 PM 43.2537 -81.0223 204° Southwest 434 499 36,000  Level FlightAware ADS-B (CYYZ)
Fri 01:56:40 PM 43.1983 -81.0550 204° Southwest 434 499 36,000  Level FlightAware ADS-B (CYYZ)
Fri 01:57:09 PM 43.1449 -81.0865 204° Southwest 435 501 36,000  Level FlightAware ADS-B (CYYZ)
Fri 01:57:21 PM 43.1375 -81.0909 203° Southwest 435 501 36,000  Level FlightAware ADS-B (EPLB / LUZ)
Fri 01:57:39 PM 43.0890 -81.1193 204° Southwest 436 502 36,000  Level FlightAware ADS-B (CYYZ)
Fri 01:58:10 PM 43.0337 -81.1516 204° Southwest 437 503 36,000  Level FlightAware ADS-B (CYYZ)
Fri 01:58:13 PM 43.0274 -81.1553 203° Southwest 436 502 36,000  Level FlightAware ADS-B (EPLB / LUZ)
Fri 01:58:39 PM 42.9788 -81.1849 205° Southwest 435 501 36,000  Level FlightAware ADS-B (CYYZ)
Fri 01:58:53 PM 42.9558 -81.1994 205° Southwest 434 499 36,000  Level FlightAware ADS-B (EPLB / LUZ)
Fri 01:59:10 PM 42.9224 -81.2204 205° Southwest 437 503 36,000  Level FlightAware ADS-B (CYYZ)
Fri 01:59:40 PM 42.8681 -81.2541 205° Southwest 436 502 36,000  Level FlightAware ADS-B (CYYZ)
Fri 01:59:41 PM 42.8653 -81.2559 205° Southwest 435 501 36,000  Level FlightAware ADS-B (EPLB / LUZ)
Fri 02:00:10 PM 42.8134 -81.2880 205° Southwest 435 501 36,000  Level FlightAware ADS-B (CYYZ)
Fri 02:00:21 PM 42.7924 -81.3009 204° Southwest 435 501 36,000  Level FlightAware ADS-B (EPLB / LUZ)
Fri 02:00:40 PM 42.7583 -81.3217 205° Southwest 435 501 36,000  Level FlightAware ADS-B (CYYZ)
Fri 02:00:51 PM 42.7360 -81.3353 204° Southwest 435 501 36,000  Level FlightAware ADS-B (EPLB / LUZ)
Fri 02:01:10 PM 42.7029 -81.3556 205° Southwest 435 501 36,000  Level FlightAware ADS-B (CYYZ)
Fri 02:01:34 PM 42.6588 -81.3826 204° Southwest 433 498 36,000  Level FlightAware ADS-B (EPLB / LUZ)
Fri 02:01:40 PM 42.6518 -81.3868 205° Southwest 434 499 36,000  Level FlightAware ADS-B (CYYZ)
Fri 02:02:07 PM 42.6066 -81.4144 204° Southwest 432 497 36,000  Level FlightAware ADS-B (EPLB / LUZ)
Fri 02:02:10 PM 42.5934 -81.4225 205° Southwest 433 498 36,000  Level FlightAware ADS-B (CYYZ)
Fri 02:02:40 PM 42.5392 -81.4557 205° Southwest 430 495 36,000  Level FlightAware ADS-B (CYYZ)
Fri 02:02:47 PM 42.5265 -81.4634 204° Southwest 430 495 36,000  Level FlightAware ADS-B (EPLB / LUZ)
Fri 02:03:10 PM 42.4858 -81.4883 205° Southwest 428 493 36,000  Level FlightAware ADS-B (CYYZ)
Fri 02:03:39 PM 42.4313 -81.5214 205° Southwest 427 491 36,000  Level FlightAware ADS-B (CYYZ)
Fri 02:04:09 PM 42.3780 -81.5537 205° Southwest 426 490 36,000  Level FlightAware ADS-B (CYYZ)
Fri 02:04:40 PM 42.3230 -81.5870 205° Southwest 424 488 36,000  Level FlightAware ADS-B (CYYZ)
Fri 02:04:45 PM 42.3372 -81.5785 204° Southwest 423 487 36,000  Level FlightAware ADS-B (EPLB / LUZ)
Fri 02:05:09 PM 42.2716 -81.6181 205° Southwest 423 487 36,000  Level FlightAware ADS-B (CYYZ)
Fri 02:05:39 PM 42.2163 -81.6515 205° Southwest 423 487 36,000  Level FlightAware ADS-B (CYYZ)
Fri 02:06:10 PM 42.1634 -81.6835 205° Southwest 424 488 36,000  Level FlightAware ADS-B (CYYZ)
Fri 02:06:40 PM 42.1090 -81.7162 205° Southwest 424 488 36,000  Level FlightAware ADS-B (CYYZ)
Fri 02:07:10 PM 42.0569 -81.7476 205° Southwest 422 486 36,000  Level FlightAware ADS-B (CYYZ)
Fri 02:07:40 PM 42.0048 -81.7789 205° Southwest 423 487 36,000  Level FlightAware ADS-B (CYYZ)
Fri 02:08:09 PM 41.9529 -81.8099 205° Southwest 425 489 36,000  Level FlightAware ADS-B (CYYZ)
Fri 02:08:40 PM 41.8953 -81.8443 205° Southwest 423 487 36,000  Level FlightAware ADS-B (CYYZ)
Fri 02:09:09 PM 41.8439 -81.8749 205° Southwest 422 486 36,000  Level FlightAware ADS-B (CYYZ)
Fri 02:09:45 PM 41.7825 -81.9179 218° Southwest 405 466 36,000  Level FlightAware ADS-B (CYYZ)
Fri 02:10:35 PM 41.7188 -82.0044 227° Southwest 396 456 36,000  Level FlightAware ADS-B (CYYZ)
Fri 02:11:05 PM 41.6818 -82.0566 227° Southwest 396 456 36,000  Level FlightAware ADS-B (CYYZ)
Fri 02:11:35 PM 41.6450 -82.1085 227° Southwest 397 457 36,000  Level FlightAware ADS-B (CYYZ)
Fri 02:12:05 PM 41.6055 -82.1643 227° Southwest 399 459 36,000  Level FlightAware ADS-B (CYYZ)
Fri 02:12:35 PM 41.5676 -82.2169 224° Southwest 404 465 36,000  Level FlightAware ADS-B (CYYZ)
Fri 02:12:55 PM 41.5426 -82.2407 208° Southwest 421 484 36,000  Level FlightAware ADS-B (CYYZ)
Fri 02:13:15 PM 41.4974 -82.2626 193° South 440 506 36,000  Level FlightAware ADS-B (CYYZ)
Fri 02:13:50 PM 41.4505 -82.2719 189° South 447 514 36,000  Level FlightAware ADS-B (CYYZ)
Fri 02:14:38 PM 41.3281 -82.2971 191° South 447 514 36,000  Level FlightAware ADS-B (CYYZ)
Fri 02:15:35 PM 41.2253 -82.3239 191° South 442 509 36,000  Level Indianapolis Center
Fri 02:16:37 PM 41.1042 -82.3547 191° South 442 509 36,000  Level Indianapolis Center
Fri 02:17:39 PM 40.9853 -82.3831 190° South 438 504 36,000  Level Indianapolis Center
Fri 02:23:30 PM 40.2766 -82.5579 191° South 435 501 36,000  Level FlightAware ADS-B (EGOD)
Fri 02:24:13 PM 40.1898 -82.5792 191° South 437 503 36,000  Level FlightAware ADS-B (EGOD)
Fri 02:24:51 PM 40.1139 -82.5909 183° South 445 512 36,000  Level FlightAware ADS-B (EGOD)
Fri 02:25:26 PM 40.0640 -82.5939 183° South 445 512 36,000  Level FlightAware ADS-B (EGOD)
Fri 02:26:13 PM 39.9457 -82.6023 183° South 445 512 36,000  Level FlightAware ADS-B (EGOD)
Fri 02:26:47 PM 39.8761 -82.6070 183° South 445 512 36,000  Level FlightAware ADS-B (EGOD)
Fri 02:27:28 PM 39.8008 -82.6122 183° South 444 511 36,000  Level FlightAware ADS-B
Fri 02:28:00 PM 39.7244 -82.6173 183° South 443 510 36,000  Level FlightAware ADS-B
Fri 02:28:35 PM 39.6640 -82.6214 183° South 441 507 36,000  Level FlightAware ADS-B
Fri 02:29:09 PM 39.5953 -82.6260 183° South 442 509 36,000  Level FlightAware ADS-B
Fri 02:29:47 PM 39.5081 -82.6319 183° South 444 511 36,000  Level FlightAware ADS-B
Fri 02:30:17 PM 39.4513 -82.6357 183° South 443 510 36,000  Level FlightAware ADS-B
Fri 02:31:03 PM 39.3528 -82.6423 183° South 441 507 36,000  Level FlightAware ADS-B
Fri 02:31:34 PM 39.2896 -82.6464 183° South 440 506 36,000  Level FlightAware ADS-B
Fri 02:32:17 PM 39.2019 -82.6523 183° South 438 504 36,000  Level FlightAware ADS-B
Fri 02:32:56 PM 39.1252 -82.6574 183° South 439 505 36,000  Level FlightAware ADS-B
Fri 02:33:29 PM 39.0550 -82.6621 183° South 441 507 36,000  Level FlightAware ADS-B
Fri 02:34:10 PM 38.9719 -82.6676 183° South 443 510 36,000  Level FlightAware ADS-B
Fri 02:34:46 PM 38.8992 -82.6724 183° South 445 512 36,000  Level FlightAware ADS-B
Fri 02:35:17 PM 38.8353 -82.6766 183° South 444 511 36,000  Level FlightAware ADS-B
Fri 02:36:02 PM 38.7416 -82.6827 183° South 443 510 36,000  Level FlightAware ADS-B
Fri 02:36:34 PM 38.6789 -82.6868 183° South 441 507 36,000  Level FlightAware ADS-B
Fri 02:37:41 PM 38.6519 -82.6886 183° South 440 506 36,000  Level FlightAware ADS-B
Fri 02:38:20 PM 38.4794 -82.7000 183° South 439 505 36,000  Level Indianapolis Center
Fri 02:39:22 PM 38.3581 -82.7086 183° South 438 504 36,000  Level Indianapolis Center
Fri 02:40:25 PM 38.2161 -82.7178 183° South 438 504 36,000  Level Indianapolis Center
Fri 02:41:27 PM 38.0950 -82.7253 183° South 437 503 36,000  Level Indianapolis Center
Fri 02:42:29 PM 37.9739 -82.7342 183° South 437 503 36,000  Level Indianapolis Center
Fri 02:43:31 PM 37.8522 -82.7425 183° South 437 503 36,000  Level Indianapolis Center
Fri 02:44:33 PM 37.7308 -82.7531 184° South 437 503 36,000  Level Indianapolis Center
Fri 02:45:35 PM 37.6172 -82.7942 196° South 427 491 36,000  Level Indianapolis Center
Fri 02:46:37 PM 37.4961 -82.8714 207° Southwest 420 483 36,000  Level Indianapolis Center
Fri 02:47:39 PM 37.3933 -82.9408 208° Southwest 419 482 36,000  Level Indianapolis Center
Fri 02:48:41 PM 37.2900 -83.0078 207° Southwest 419 482 36,000  Level Indianapolis Center
Fri 02:49:43 PM 37.1861 -83.0753 207° Southwest 420 483 36,000  Level Indianapolis Center
Fri 02:50:45 PM 37.0656 -83.1531 207° Southwest 421 484 36,000  Level Indianapolis Center
Fri 02:51:48 PM 36.9633 -83.2186 207° Southwest 420 483 36,000  Level Indianapolis Center
Fri 02:52:50 PM 36.8608 -83.2856 208° Southwest 420 483 36,000  Level Indianapolis Center
Fri 02:54:22 PM 36.7008 -83.3914 208° Southwest 424 488 36,000  Level Atlanta Center
Fri 02:54:54 PM 36.6364 -83.4292 205° Southwest 420 483 36,000  Level Indianapolis Center
Fri 02:55:56 PM 36.5322 -83.4956 207° Southwest 420 483 36,000  Level Indianapolis Center
Fri 02:56:58 PM 36.4225 -83.5658 207° Southwest 420 483 36,000  Level Indianapolis Center
Fri 02:58:00 PM 36.3186 -83.6331 208° Southwest 420 483 36,000  Level Indianapolis Center
Fri 02:59:02 PM 36.2131 -83.6992 207° Southwest 421 484 36,000  Level Indianapolis Center
Fri 03:00:04 PM 36.1089 -83.7656 207° Southwest 421 484 36,000  Level Indianapolis Center
Fri 03:01:06 PM 36.0031 -83.8314 207° Southwest 421 484 36,000  Level Indianapolis Center
Fri 03:02:08 PM 35.8953 -83.8925 205° Southwest 421 484 36,000  Level Indianapolis Center
Fri 03:07:22 PM 35.2267 -84.0589 191° South 444 511 36,000  Level FlightAware ADS-B (KDZJ)
Fri 03:08:01 PM 35.1481 -84.0779 191° South 443 510 36,000  Level FlightAware ADS-B (KDZJ)
Fri 03:08:36 PM 35.0788 -84.0943 191° South 442 509 36,000  Level FlightAware ADS-B (KDZJ)
Fri 03:09:21 PM 34.9858 -84.1166 191° South 443 510 36,000  Level FlightAware ADS-B (KDZJ)
Fri 03:09:59 PM 34.9082 -84.1352 191° South 445 512 36,000  Level FlightAware ADS-B (KDZJ)
Fri 03:10:40 PM 34.8265 -84.1545 191° South 446 513 36,000  Level FlightAware ADS-B (KDZJ)
Fri 03:11:38 PM 34.7086 -84.1825 191° South 445 512 36,000  Level FlightAware ADS-B (KDZJ)
Fri 03:12:20 PM 34.6253 -84.2022 191° South 443 510 36,000  Level FlightAware ADS-B (KDZJ)
Fri 03:13:00 PM 34.5438 -84.2215 191° South 442 509 36,000  Level FlightAware ADS-B (KDZJ)
Fri 03:13:41 PM 34.4624 -84.2406 191° South 442 509 36,000  Level FlightAware ADS-B (KDZJ)
Fri 03:14:21 PM 34.3830 -84.2594 191° South 442 509 36,000  Level FlightAware ADS-B (KDZJ)
Fri 03:15:02 PM 34.2984 -84.2793 191° South 444 511 36,000  Level FlightAware ADS-B (KDZJ)
Fri 03:15:42 PM 34.2169 -84.2984 191° South 444 511 36,000  Level FlightAware ADS-B (KDZJ)
Fri 03:16:22 PM 34.1369 -84.3171 191° South 443 510 36,000  Level FlightAware ADS-B (KDZJ)
Fri 03:17:02 PM 34.0570 -84.3357 191° South 444 511 36,000  Level FlightAware ADS-B (KDZJ)
Fri 03:17:32 PM 33.9962 -84.3499 191° South 445 512 36,000  Level FlightAware ADS-B (KDZJ)
Fri 03:18:22 PM 33.9275 -84.3667 191° South 449 517 36,000  Level Atlanta Center
Fri 03:19:22 PM 33.7875 -84.4014 192° South 456 525 36,000  Level Atlanta Center
Fri 03:20:22 PM 33.6706 -84.4256 190° South 456 525 36,000  Level Atlanta Center
Fri 03:21:22 PM 33.5597 -84.4353 184° South 447 514 36,000  Level Atlanta Center
Fri 03:22:22 PM 33.4283 -84.4344 180° South 454 522 36,000  Level Atlanta Center
Fri 03:23:22 PM 33.3011 -84.4314 179° South 459 528 36,000  Level Atlanta Center
Fri 03:24:22 PM 33.1717 -84.4283 179° South 459 528 36,000  Level Atlanta Center
Fri 03:25:22 PM 33.0400 -84.4278 180° South 459 528 36,000 250 Level Atlanta Center
Fri 03:26:22 PM 32.8961 -84.4247 179° South 464 534 36,500 500 Climbing Atlanta Center
Fri 03:27:22 PM 32.7647 -84.4192 178° South 471 542 37,000 250 Climbing Atlanta Center
Fri 03:28:22 PM 32.6269 -84.4161 179° South 477 549 37,000  Level Atlanta Center
Fri 03:29:22 PM 32.4892 -84.4131 179° South 487 560 37,000  Level Atlanta Center
Fri 03:30:22 PM 32.3556 -84.4125 180° South 487 560 37,000  Level Atlanta Center
Fri 03:31:22 PM 32.2178 -84.4072 178° South 487 560 37,000  Level Atlanta Center
Fri 03:32:13 PM 32.1033 -84.4058 179° South 488 562 37,000  Level Jacksonville Center
Fri 03:33:13 PM 31.9675 -84.4011 178° South 495 570 37,000  Level Jacksonville Center
Fri 03:39:07 PM 31.1535 -84.3855 179° South 497 572 37,000  Level FlightAware ADS-B (KONZ)
Fri 03:40:03 PM 31.0297 -84.3831 179° South 495 570 37,000  Level FlightAware ADS-B (KONZ)
Fri 03:40:36 PM 30.9478 -84.3815 179° South 495 570 37,000  Level FlightAware ADS-B (KONZ)
Fri 03:41:09 PM 30.8768 -84.3802 179° South 497 572 37,000  Level FlightAware ADS-B (KONZ)
Fri 03:41:47 PM 30.7986 -84.3786 179° South 498 573 37,000  Level FlightAware ADS-B (KONZ)
Fri 03:42:18 PM 30.7172 -84.3755 176° South 504 580 37,000  Level FlightAware ADS-B (KONZ)
Fri 03:42:56 PM 30.6308 -84.3625 169° South 511 588 37,000  Level FlightAware ADS-B (KONZ)
Fri 03:43:29 PM 30.5481 -84.3395 164° South 519 597 37,000  Level FlightAware ADS-B (KONZ)
Fri 03:44:18 PM 30.4366 -84.2911 155° Southeast 528 608 37,000  Level FlightAware ADS-B (KONZ)
Fri 03:44:49 PM 30.3741 -84.2540 151° Southeast 534 615 37,000  Level FlightAware ADS-B (KONZ)
Fri 03:45:22 PM 30.2970 -84.2035 151° Southeast 533 613 37,000  Level FlightAware ADS-B (KONZ)
Fri 03:46:08 PM 30.2000 -84.1406 151° Southeast 534 615 37,000  Level FlightAware ADS-B (KONZ)
Fri 03:46:46 PM 30.1181 -84.0873 151° Southeast 535 616 37,000  Level FlightAware ADS-B (KONZ)
Fri 03:47:19 PM 30.0467 -84.0409 151° Southeast 535 616 37,000  Level FlightAware ADS-B (KONZ)
Fri 03:47:56 PM 29.9777 -83.9962 151° Southeast 533 613 37,000  Level FlightAware ADS-B (KONZ)
Fri 03:49:13 PM 29.8219 -83.8981 151° Southeast 533 613 37,000  Level Jacksonville Center
Fri 03:50:13 PM 29.6786 -83.8058 151° Southeast 533 613 37,000  Level Jacksonville Center
Fri 03:51:13 PM 29.5497 -83.7233 151° Southeast 533 613 37,000  Level Jacksonville Center
Fri 03:52:13 PM 29.4250 -83.6436 151° Southeast 533 613 37,000  Level Jacksonville Center
Fri 03:53:13 PM 29.2961 -83.5617 151° Southeast 533 613 37,000  Level Jacksonville Center
Fri 03:54:13 PM 29.1711 -83.4800 150° Southeast 523 602 37,000  Level Jacksonville Center
Fri 03:55:13 PM 29.0483 -83.4008 151° Southeast 518 596 37,000  Level Jacksonville Center
Fri 03:56:13 PM 28.9172 -83.3194 151° Southeast 523 602 37,000  Level Jacksonville Center
Fri 04:01:46 PM 28.2283 -82.8834 151° Southeast 492 566 37,000  Level FlightAware ADS-B
Fri 04:03:52 PM 27.9782 -82.7280 151° Southeast 496 571 37,000  Level FlightAware ADS-B
Fri 04:05:08 PM 27.8248 -82.6299 149° Southeast 497 572 37,000  Level FlightAware ADS-B
Fri 04:05:38 PM 27.7659 -82.5898 149° Southeast 497 572 37,000  Level FlightAware ADS-B
Fri 04:06:17 PM 27.6876 -82.5373 149° Southeast 496 571 37,000  Level FlightAware ADS-B
Fri 04:06:58 PM 27.6062 -82.4832 149° Southeast 495 570 37,000  Level FlightAware ADS-B
Fri 04:08:17 PM 27.4499 -82.4007 158° South 481 554 37,000  Level FlightAware ADS-B
Fri 04:08:56 PM 27.3660 -82.3620 158° South 483 556 37,000  Level FlightAware ADS-B
Fri 04:11:49 PM 27.0085 -82.1972 158° South 483 556 37,000  Level FlightAware ADS-B
Fri 04:13:49 PM 26.7591 -82.0830 158° South 484 557 37,000  Level FlightAware ADS-B
Fri 04:14:38 PM 26.6582 -82.0369 158° South 484 557 37,000  Level FlightAware ADS-B
Fri 04:15:09 PM 26.6033 -82.0119 158° South 485 558 37,000  Level FlightAware ADS-B
Fri 04:15:48 PM 26.5123 -81.9706 158° South 486 559 37,000  Level FlightAware ADS-B
Fri 04:16:18 PM 26.4485 -81.9416 158° South 488 562 37,000  Level FlightAware ADS-B
Fri 04:16:54 PM 26.3796 -81.9103 158° South 489 563 37,000  Level FlightAware ADS-B
Fri 04:17:28 PM 26.3160 -81.8814 158° South 489 563 37,000  Level FlightAware ADS-B
Fri 04:17:59 PM 26.2435 -81.8486 158° South 489 563 37,000  Level FlightAware ADS-B
Fri 04:18:39 PM 26.1809 -81.8203 158° South 490 564 37,000  Level FlightAware ADS-B
Fri 04:19:09 PM 26.0891 -81.7789 158° South 490 564 37,000  Level FlightAware ADS-B
Fri 04:20:16 PM 26.0496 -81.7610 158° South 489 563 37,000  Level FlightAware ADS-B
Fri 04:21:01 PM 25.8717 -81.6809 158° South 484 557 37,000  Level FlightAware ADS-B
Fri 04:21:06 PM 25.8672 -81.6797 183° South 486 559 37,000  Level Miami Center
Fri 04:22:06 PM 25.7417 -81.6242 183° South 486 559 37,000  Level Miami Center
Fri 04:23:06 PM 25.6161 -81.5731 183° South 486 559 37,000  Level Miami Center
Fri 04:23:24 PM 25.5581 -81.5611 171° South 465 535 37,000  Level FlightAware ADS-B
Fri 04:24:06 PM 25.4892 -81.5544 183° South 471 542 37,000  Level Miami Center
Fri 04:24:34 PM 25.4279 -81.5522 183° South 450 518 37,000  Level FlightAware ADS-B
Fri 04:25:06 PM 25.3636 -81.5611 183° South 460 529 37,000  Level Miami Center
Fri 04:26:06 PM 25.2417 -81.5883 191° South 454 522 37,000  Level Miami Center
Fri 04:27:06 PM 25.1236 -81.6228 195° South 448 516 37,000  Level Miami Center
Fri 04:28:06 PM 25.0036 -81.6572 195° South 448 516 37,000 -400 Level Miami Center
Fri 04:29:06 PM 24.8833 -81.6936 195° South 448 516 36,200 -900 Descending Miami Center
Fri 04:30:06 PM 24.7675 -81.7256 194° South 443 510 35,200 -1,050 Descending Miami Center
Fri 04:31:06 PM 24.6431 -81.7619 195° South 443 510 34,100 900 Descending Miami Center
Fri 04:32:06 PM 24.5361 -81.8331 211° Southwest 449 517 37,000 -1,900 Climbing Miami Center
Fri 04:33:06 PM 24.4542 -81.9119 221° Southwest 433 498 30,300 -4,045 Descending Miami Center
Fri 04:34:18 PM 24.3731 -82.0225 231° Southwest 395 455 28,100 -1,818 Descending Miami Center
Fri 04:35:18 PM 24.3075 -82.1108 231° Southwest 395 455 26,300 -1,850 Descending Miami Center
Fri 04:36:18 PM 24.2414 -82.2039 232° Southwest 390 449 24,400 -1,850 Descending Miami Center
Fri 04:37:18 PM 24.1736 -82.2875 228° Southwest 385 443 22,600 -1,200 Descending Miami Center
Fri 04:38:18 PM 24.1103 -82.3689 230° Southwest 379 436 22,000 -300 Descending Miami Center
Fri 04:39:18 PM 24.0572 -82.4483 234° Southwest 356 410 22,000  Level Miami Center
Fri 04:41:00 PM 23.8828 -82.4999 173° South  Level FlightAware Approximate
Fri 04:48:00 PM 23.0222 -82.4000 180° South  Level FlightAware Approximate
Fri 04:49:00 PM 22.9891 -82.4091 180° South  Level Estimated
Fri 04:50:00 PM 22.9891 -82.4091 180° South  Level Estimated
Fri 04:51:00 PM 22.9891 -82.4091 180° South  Level Estimated
Fri 04:52:00 PM 22.9891 -82.4091 180° South  Level Estimated
Fri 04:53:00 PM 22.9891 -82.4091 180° South  Level Estimated
Fri 04:54:00 PM 22.9891 -82.4091 180° South  Level Estimated
Fri 04:55:00 PM 22.9891 -82.4091 180° South  Level Estimated
Fri 04:56:00 PM 22.9891 -82.4091 180° South  Level Estimated
Fri 04:57:00 PM 22.9891 -82.4091 180° South  Level Estimated
Fri 04:58:00 PM 22.9891 -82.4091 180° South  Level Estimated
Fri 04:59:00 PM 22.9891 -82.4091 180° South  Level Estimated
Fri 05:00:00 PM 22.9891 -82.4091 180° South  Level Estimated
Fri 05:01:00 PM 22.9891 -82.4091 180° South  Level Estimated
Fri 05:02:00 PM 22.9891 -82.4091 180° South  Level Estimated
Fri 05:03:00 PM 22.9891 -82.4091 180° South  Level Estimated
Fri 05:04:00 PM 22.9891 -82.4091 180° South  Level Estimated
Fri 05:05:00 PM 22.9891 -82.4091 180° South  Level Estimated
Fri 05:06:00 PM 22.9891 -82.4091 180° South  Level Estimated
Fri 05:07:00 PM 22.9891 -82.4091 180° South  Level Estimated
Fri 05:08:00 PM 22.9891 -82.4091 180° South  Level Estimated
Fri 05:09:00 PM 22.9891 -82.4091 180° South  Level Estimated
Fri 05:10:00 PM 22.9891 -82.4091 180° South  Level Estimated

Login

Don't have an account? Register now (free) for customized features, flight alerts, and more!